Arion, Iowa
Current Conditions -  °F | °C
As of 3:15 PM on Sunday 21 Dec 2014 (Local Time) from KDNS Reporting Station
Haze Haze  
Wind Chill: 30°   Ceiling: 500
Heat Index: 39°   Visibility: 2.5mi
Dew Point: 39°   Wind: 17mph
Humidity: 100%   Direction: 190°S
Pressure: 29.71"   Gusts: 26mph
Location:  41.95°N, 95.46°W
Report Text: KDNS 212115Z AUTO 19015G23KT 170V230 2 1/2SM BR OVC005 04/04 A2971 RMK AO2
Loading
Personal Weather Stations






























Interactive Weather Map New forecast layout! Learn more

10-Day Weather Forecast

Advertisements
Track Severe Weather on mobile